DLH6KH EDDM-EDDW
Flight info
| Callsign | DLH6KH |
|---|---|
| Flight time | 0h 57m |
| Altitude | 30000 |
| Route | INPUD2N/26R INPUD Y102 ALIBU DCT MASEK/N0429F290 DCT ELNAT/N0432F300 P605 NORTA Z595 NIE Z88 VERED VERED3P |
| Aircraft | A321/M-SDE2E3FGILORWXYZ/HB1 |
Departure
| Time | 2026-05-07 17:24 |
|---|---|
| Airport | Munich Airport (EDDM) |
Arrival
| Time | 2026-05-07 18:21 |
|---|---|
| Airport | Bremen Airport (EDDW) |
| Time | Latitude | Longitude | Altitude | Speed | Heading |
|---|---|---|---|---|---|
| 2026-05-07 16:11 | 48.35619 | 11.79704 | 1476 ft | 0 kts | 83° |
| 2026-05-07 17:06 | 48.35617 | 11.79689 | 1475 ft | 4 kts | 83° |
| 2026-05-07 17:06 | 48.35614 | 11.79648 | 1476 ft | 4 kts | 83° |
| 2026-05-07 17:07 | 48.35612 | 11.79616 | 1477 ft | 4 kts | 78° |
| 2026-05-07 17:07 | 48.35602 | 11.79581 | 1473 ft | 4 kts | 39° |
| 2026-05-07 17:07 | 48.35579 | 11.79568 | 1478 ft | 3 kts | 354° |
| 2026-05-07 17:07 | 48.35557 | 11.79572 | 1477 ft | 1 kts | 353° |
| 2026-05-07 17:08 | 48.35556 | 11.79572 | 1477 ft | 0 kts | 353° |
| 2026-05-07 17:13 | 48.35557 | 11.79572 | 1485 ft | 1 kts | 353° |
| 2026-05-07 17:13 | 48.35589 | 11.79566 | 1475 ft | 7 kts | 353° |
| 2026-05-07 17:13 | 48.35645 | 11.79556 | 1483 ft | 9 kts | 353° |
| 2026-05-07 17:13 | 48.35712 | 11.79545 | 1479 ft | 9 kts | 353° |
| 2026-05-07 17:14 | 48.35781 | 11.79533 | 1485 ft | 11 kts | 353° |
| 2026-05-07 17:14 | 48.35854 | 11.79520 | 1478 ft | 5 kts | 353° |
| 2026-05-07 17:14 | 48.35889 | 11.79514 | 1485 ft | 6 kts | 353° |
| 2026-05-07 17:14 | 48.35937 | 11.79506 | 1476 ft | 8 kts | 353° |
| 2026-05-07 17:15 | 48.35985 | 11.79498 | 1486 ft | 0 kts | 353° |
| 2026-05-07 17:15 | 48.35992 | 11.79497 | 1479 ft | 0 kts | 353° |
| 2026-05-07 17:15 | 48.35994 | 11.79496 | 1486 ft | 2 kts | 353° |
| 2026-05-07 17:16 | 48.36027 | 11.79491 | 1478 ft | 9 kts | 353° |
| 2026-05-07 17:16 | 48.36110 | 11.79477 | 1476 ft | 13 kts | 353° |
| 2026-05-07 17:16 | 48.36203 | 11.79475 | 1480 ft | 13 kts | 34° |
| 2026-05-07 17:16 | 48.36224 | 11.79611 | 1482 ft | 14 kts | 84° |
| 2026-05-07 17:17 | 48.36236 | 11.79766 | 1485 ft | 16 kts | 83° |
| 2026-05-07 17:17 | 48.36249 | 11.79934 | 1478 ft | 17 kts | 83° |
| 2026-05-07 17:17 | 48.36263 | 11.80119 | 1485 ft | 19 kts | 83° |
| 2026-05-07 17:17 | 48.36279 | 11.80319 | 1476 ft | 20 kts | 83° |
| 2026-05-07 17:18 | 48.36296 | 11.80531 | 1480 ft | 21 kts | 83° |
| 2026-05-07 17:18 | 48.36313 | 11.80756 | 1473 ft | 22 kts | 83° |
| 2026-05-07 17:18 | 48.36332 | 11.80993 | 1485 ft | 23 kts | 83° |
| 2026-05-07 17:18 | 48.36351 | 11.81240 | 1485 ft | 24 kts | 83° |
| 2026-05-07 17:19 | 48.36370 | 11.81496 | 1479 ft | 25 kts | 83° |
| 2026-05-07 17:19 | 48.36390 | 11.81753 | 1473 ft | 18 kts | 84° |
| 2026-05-07 17:19 | 48.36398 | 11.81924 | 1485 ft | 15 kts | 87° |
| 2026-05-07 17:19 | 48.36456 | 11.81999 | 1477 ft | 9 kts | 355° |
| 2026-05-07 17:20 | 48.36488 | 11.81994 | 1485 ft | 0 kts | 355° |
| 2026-05-07 17:21 | 48.36490 | 11.81994 | 1485 ft | 1 kts | 355° |
| 2026-05-07 17:21 | 48.36503 | 11.81992 | 1476 ft | 3 kts | 355° |
| 2026-05-07 17:21 | 48.36529 | 11.81989 | 1477 ft | 5 kts | 354° |
| 2026-05-07 17:22 | 48.36560 | 11.81983 | 1485 ft | 0 kts | 353° |
| 2026-05-07 17:23 | 48.36565 | 11.81982 | 1485 ft | 3 kts | 353° |
| 2026-05-07 17:23 | 48.36619 | 11.81970 | 1481 ft | 12 kts | 347° |
| 2026-05-07 17:23 | 48.36663 | 11.81861 | 1474 ft | 17 kts | 269° |
| 2026-05-07 17:24 | 48.36635 | 11.81424 | 1481 ft | 79 kts | 263° |
| 2026-05-07 17:24 | 48.36545 | 11.80248 | 1486 ft | 145 kts | 263° |
| 2026-05-07 17:24 | 48.36420 | 11.78547 | 1817 ft | 167 kts | 265° |
| 2026-05-07 17:24 | 48.36296 | 11.76805 | 2574 ft | 169 kts | 264° |
| 2026-05-07 17:25 | 48.36150 | 11.74988 | 3043 ft | 185 kts | 264° |
| 2026-05-07 17:25 | 48.35980 | 11.72962 | 3373 ft | 205 kts | 264° |
| 2026-05-07 17:25 | 48.35785 | 11.70759 | 3742 ft | 219 kts | 264° |
| 2026-05-07 17:25 | 48.35727 | 11.68448 | 4286 ft | 224 kts | 280° |
| 2026-05-07 17:26 | 48.36317 | 11.66223 | 4673 ft | 241 kts | 300° |
| 2026-05-07 17:26 | 48.37224 | 11.63994 | 5201 ft | 254 kts | 301° |
| 2026-05-07 17:26 | 48.38189 | 11.61730 | 5914 ft | 260 kts | 304° |
| 2026-05-07 17:26 | 48.39350 | 11.59599 | 6626 ft | 266 kts | 313° |
| 2026-05-07 17:27 | 48.40738 | 11.57737 | 7175 ft | 269 kts | 318° |
| 2026-05-07 17:27 | 48.42160 | 11.55893 | 7552 ft | 271 kts | 321° |
| 2026-05-07 17:27 | 48.43858 | 11.54624 | 8022 ft | 276 kts | 342° |
| 2026-05-07 17:27 | 48.45709 | 11.53884 | 8736 ft | 280 kts | 342° |
| 2026-05-07 17:28 | 48.47603 | 11.53107 | 9469 ft | 283 kts | 342° |
| 2026-05-07 17:28 | 48.49521 | 11.52301 | 9914 ft | 289 kts | 341° |
| 2026-05-07 17:28 | 48.51467 | 11.51478 | 10024 ft | 297 kts | 341° |
| 2026-05-07 17:28 | 48.53539 | 11.50602 | 10157 ft | 319 kts | 342° |
| 2026-05-07 17:29 | 48.55738 | 11.49682 | 10502 ft | 334 kts | 342° |
| 2026-05-07 17:29 | 48.58003 | 11.48744 | 11112 ft | 339 kts | 342° |
| 2026-05-07 17:29 | 48.60295 | 11.47800 | 11758 ft | 342 kts | 342° |
| 2026-05-07 17:29 | 48.62603 | 11.46852 | 12398 ft | 346 kts | 342° |
| 2026-05-07 17:30 | 48.64940 | 11.45889 | 13032 ft | 349 kts | 342° |
| 2026-05-07 17:30 | 48.67296 | 11.44913 | 13654 ft | 352 kts | 341° |
| 2026-05-07 17:30 | 48.69641 | 11.43936 | 14264 ft | 355 kts | 341° |
| 2026-05-07 17:30 | 48.72043 | 11.42934 | 14861 ft | 359 kts | 341° |
| 2026-05-07 17:31 | 48.74459 | 11.41926 | 15471 ft | 361 kts | 342° |
| 2026-05-07 17:31 | 48.76903 | 11.40906 | 16065 ft | 364 kts | 342° |
| 2026-05-07 17:31 | 48.79358 | 11.39878 | 16635 ft | 367 kts | 342° |
| 2026-05-07 17:31 | 48.81799 | 11.38853 | 17190 ft | 370 kts | 342° |
| 2026-05-07 17:32 | 48.84289 | 11.37812 | 17736 ft | 373 kts | 342° |
| 2026-05-07 17:32 | 48.86804 | 11.36759 | 18275 ft | 375 kts | 342° |
| 2026-05-07 17:32 | 48.89333 | 11.35697 | 18812 ft | 378 kts | 342° |
| 2026-05-07 17:32 | 48.91016 | 11.34988 | 19165 ft | 380 kts | 342° |
| 2026-05-07 17:33 | 48.94441 | 11.33548 | 19854 ft | 383 kts | 342° |
| 2026-05-07 17:33 | 48.97011 | 11.32467 | 20351 ft | 385 kts | 342° |
| 2026-05-07 17:33 | 48.99606 | 11.31378 | 20833 ft | 387 kts | 342° |
| 2026-05-07 17:33 | 49.02217 | 11.30280 | 21312 ft | 390 kts | 342° |
| 2026-05-07 17:34 | 49.04840 | 11.29176 | 21774 ft | 392 kts | 342° |
| 2026-05-07 17:34 | 49.07481 | 11.28064 | 22220 ft | 394 kts | 342° |
| 2026-05-07 17:34 | 49.10137 | 11.26944 | 22675 ft | 396 kts | 342° |
| 2026-05-07 17:34 | 49.12768 | 11.25828 | 23093 ft | 398 kts | 342° |
| 2026-05-07 17:35 | 49.15449 | 11.24689 | 23517 ft | 400 kts | 342° |
| 2026-05-07 17:35 | 49.18134 | 11.23549 | 23936 ft | 402 kts | 342° |
| 2026-05-07 17:35 | 49.20839 | 11.22398 | 24344 ft | 404 kts | 342° |
| 2026-05-07 17:35 | 49.23534 | 11.21137 | 24742 ft | 406 kts | 340° |
| 2026-05-07 17:36 | 49.26210 | 11.19704 | 25131 ft | 408 kts | 338° |
| 2026-05-07 17:36 | 49.28873 | 11.18160 | 25504 ft | 410 kts | 337° |
| 2026-05-07 17:36 | 49.31549 | 11.16558 | 25873 ft | 413 kts | 337° |
| 2026-05-07 17:36 | 49.34236 | 11.14954 | 26231 ft | 415 kts | 338° |
| 2026-05-07 17:37 | 49.36944 | 11.13362 | 26584 ft | 418 kts | 338° |
| 2026-05-07 17:37 | 49.39668 | 11.11791 | 26924 ft | 420 kts | 338° |
| 2026-05-07 17:37 | 49.42389 | 11.10245 | 27260 ft | 422 kts | 339° |
| 2026-05-07 17:37 | 49.45152 | 11.08684 | 27584 ft | 424 kts | 339° |
| 2026-05-07 17:38 | 49.47932 | 11.07108 | 27918 ft | 427 kts | 339° |
| 2026-05-07 17:38 | 49.50729 | 11.05522 | 28231 ft | 429 kts | 339° |
| 2026-05-07 17:38 | 49.53459 | 11.03645 | 28537 ft | 430 kts | 330° |
| 2026-05-07 17:38 | 49.56029 | 11.01263 | 28825 ft | 432 kts | 328° |
| 2026-05-07 17:39 | 49.58615 | 10.98818 | 29142 ft | 435 kts | 328° |
| 2026-05-07 17:39 | 49.61207 | 10.96369 | 29449 ft | 436 kts | 328° |
| 2026-05-07 17:39 | 49.63801 | 10.93922 | 29746 ft | 438 kts | 328° |
| 2026-05-07 17:39 | 49.66414 | 10.91458 | 30022 ft | 441 kts | 328° |
| 2026-05-07 17:40 | 49.69038 | 10.88984 | 30291 ft | 443 kts | 328° |
| 2026-05-07 17:40 | 49.71640 | 10.86527 | 30546 ft | 445 kts | 328° |
| 2026-05-07 17:40 | 49.74286 | 10.84025 | 30769 ft | 447 kts | 328° |
| 2026-05-07 17:40 | 49.76953 | 10.81498 | 30991 ft | 449 kts | 328° |
| 2026-05-07 17:41 | 49.79627 | 10.78962 | 31210 ft | 451 kts | 328° |
| 2026-05-07 17:41 | 49.82305 | 10.76421 | 31476 ft | 451 kts | 328° |
| 2026-05-07 17:41 | 49.84984 | 10.73872 | 31761 ft | 451 kts | 328° |
| 2026-05-07 17:41 | 49.87652 | 10.71329 | 32023 ft | 451 kts | 328° |
| 2026-05-07 17:42 | 49.90328 | 10.68775 | 32297 ft | 451 kts | 328° |
| 2026-05-07 17:42 | 49.93019 | 10.66203 | 32570 ft | 451 kts | 328° |
| 2026-05-07 17:42 | 49.95670 | 10.63666 | 32829 ft | 451 kts | 328° |
| 2026-05-07 17:42 | 49.98343 | 10.61101 | 33089 ft | 451 kts | 327° |
| 2026-05-07 17:43 | 50.01007 | 10.58540 | 33350 ft | 450 kts | 327° |
| 2026-05-07 17:43 | 50.03645 | 10.56002 | 33598 ft | 450 kts | 327° |
| 2026-05-07 17:43 | 50.06313 | 10.53434 | 33839 ft | 450 kts | 327° |
| 2026-05-07 17:43 | 50.08977 | 10.50871 | 34021 ft | 451 kts | 327° |
| 2026-05-07 17:44 | 50.14260 | 10.45783 | 34071 ft | 441 kts | 327° |
| 2026-05-07 17:44 | 50.19438 | 10.40753 | 34072 ft | 439 kts | 327° |
| 2026-05-07 17:45 | 50.24629 | 10.35717 | 34072 ft | 438 kts | 327° |
| 2026-05-07 17:45 | 50.29826 | 10.30713 | 34069 ft | 438 kts | 330° |
| 2026-05-07 17:46 | 50.32599 | 10.28687 | 33908 ft | 440 kts | 335° |
| 2026-05-07 17:46 | 50.35414 | 10.26805 | 33653 ft | 437 kts | 336° |
| 2026-05-07 17:46 | 50.38173 | 10.24977 | 33404 ft | 433 kts | 336° |
| 2026-05-07 17:46 | 50.40941 | 10.23150 | 33170 ft | 431 kts | 336° |
| 2026-05-07 17:47 | 50.43708 | 10.21322 | 32913 ft | 431 kts | 336° |
| 2026-05-07 17:47 | 50.46469 | 10.19489 | 32657 ft | 430 kts | 336° |
| 2026-05-07 17:47 | 50.49222 | 10.17653 | 32408 ft | 430 kts | 336° |
| 2026-05-07 17:47 | 50.51054 | 10.16425 | 32241 ft | 430 kts | 336° |
| 2026-05-07 17:48 | 50.53816 | 10.14565 | 32044 ft | 430 kts | 336° |
| 2026-05-07 17:48 | 50.56567 | 10.12709 | 32073 ft | 430 kts | 337° |
| 2026-05-07 17:48 | 50.62071 | 10.08994 | 32083 ft | 430 kts | 337° |
| 2026-05-07 17:49 | 50.67581 | 10.05283 | 32082 ft | 431 kts | 337° |
| 2026-05-07 17:49 | 50.73056 | 10.01569 | 32081 ft | 430 kts | 337° |
| 2026-05-07 17:50 | 50.78565 | 9.97831 | 32082 ft | 431 kts | 337° |
| 2026-05-07 17:50 | 50.84074 | 9.94081 | 32091 ft | 431 kts | 336° |
| 2026-05-07 17:51 | 50.89577 | 9.90330 | 32092 ft | 431 kts | 336° |
| 2026-05-07 17:51 | 50.95074 | 9.86566 | 32094 ft | 430 kts | 336° |
| 2026-05-07 17:52 | 51.00571 | 9.82799 | 32095 ft | 430 kts | 336° |
| 2026-05-07 17:52 | 51.06071 | 9.79024 | 32094 ft | 430 kts | 336° |
| 2026-05-07 17:53 | 51.11572 | 9.75236 | 32094 ft | 430 kts | 336° |
| 2026-05-07 17:53 | 51.17074 | 9.71484 | 32089 ft | 430 kts | 340° |
| 2026-05-07 17:54 | 51.22924 | 9.69704 | 32083 ft | 430 kts | 359° |
| 2026-05-07 17:54 | 51.28893 | 9.70458 | 32084 ft | 431 kts | 6° |
| 2026-05-07 17:55 | 51.34828 | 9.71224 | 32084 ft | 431 kts | 356° |
| 2026-05-07 17:55 | 51.37766 | 9.70366 | 32085 ft | 429 kts | 340° |
| 2026-05-07 17:55 | 51.40480 | 9.68399 | 32084 ft | 429 kts | 333° |
| 2026-05-07 17:56 | 51.45811 | 9.64065 | 32082 ft | 430 kts | 333° |
| 2026-05-07 17:56 | 51.51148 | 9.59702 | 32084 ft | 431 kts | 333° |
| 2026-05-07 17:57 | 51.55627 | 9.56027 | 32088 ft | 431 kts | 333° |
| 2026-05-07 17:57 | 51.59156 | 9.53115 | 31911 ft | 428 kts | 332° |
| 2026-05-07 17:57 | 51.61791 | 9.50941 | 31660 ft | 424 kts | 333° |
| 2026-05-07 17:58 | 51.64410 | 9.48785 | 31411 ft | 421 kts | 333° |
| 2026-05-07 17:58 | 51.67016 | 9.46639 | 31167 ft | 419 kts | 333° |
| 2026-05-07 17:58 | 51.69606 | 9.44504 | 30908 ft | 417 kts | 333° |
| 2026-05-07 17:58 | 51.72187 | 9.42372 | 30657 ft | 415 kts | 332° |
| 2026-05-07 17:59 | 51.74736 | 9.40261 | 30337 ft | 409 kts | 332° |
| 2026-05-07 17:59 | 51.77258 | 9.38165 | 29864 ft | 405 kts | 332° |
| 2026-05-07 17:59 | 51.79752 | 9.36090 | 29406 ft | 401 kts | 332° |
| 2026-05-07 17:59 | 51.82217 | 9.34038 | 28960 ft | 396 kts | 332° |
| 2026-05-07 18:00 | 51.84634 | 9.32028 | 28498 ft | 392 kts | 332° |
| 2026-05-07 18:00 | 51.87055 | 9.30012 | 28063 ft | 388 kts | 332° |
| 2026-05-07 18:00 | 51.89445 | 9.28018 | 27632 ft | 384 kts | 332° |
| 2026-05-07 18:00 | 51.91804 | 9.26042 | 27216 ft | 379 kts | 332° |
| 2026-05-07 18:01 | 51.94135 | 9.24086 | 26811 ft | 375 kts | 332° |
| 2026-05-07 18:01 | 51.96440 | 9.22150 | 26403 ft | 371 kts | 332° |
| 2026-05-07 18:01 | 51.98720 | 9.20237 | 26013 ft | 366 kts | 332° |
| 2026-05-07 18:01 | 52.00943 | 9.18374 | 25622 ft | 362 kts | 332° |
| 2026-05-07 18:02 | 52.05376 | 9.14646 | 25083 ft | 363 kts | 332° |
| 2026-05-07 18:02 | 52.07662 | 9.12712 | 24963 ft | 377 kts | 332° |
| 2026-05-07 18:02 | 52.10016 | 9.10720 | 23896 ft | 388 kts | 332° |
| 2026-05-07 18:03 | 52.12419 | 9.08691 | 23442 ft | 383 kts | 332° |
| 2026-05-07 18:03 | 52.14751 | 9.06725 | 23192 ft | 373 kts | 332° |
| 2026-05-07 18:03 | 52.17039 | 9.04794 | 22766 ft | 368 kts | 332° |
| 2026-05-07 18:03 | 52.19272 | 9.02906 | 22353 ft | 363 kts | 332° |
| 2026-05-07 18:04 | 52.21492 | 9.01023 | 21919 ft | 358 kts | 332° |
| 2026-05-07 18:04 | 52.23691 | 8.99154 | 21489 ft | 353 kts | 332° |
| 2026-05-07 18:04 | 52.25855 | 8.97312 | 21065 ft | 349 kts | 331° |
| 2026-05-07 18:04 | 52.28002 | 8.95481 | 20646 ft | 344 kts | 331° |
| 2026-05-07 18:05 | 52.30118 | 8.93678 | 20233 ft | 340 kts | 331° |
| 2026-05-07 18:05 | 52.32204 | 8.91897 | 19819 ft | 337 kts | 331° |
| 2026-05-07 18:05 | 52.34266 | 8.90134 | 19403 ft | 333 kts | 331° |
| 2026-05-07 18:05 | 52.36315 | 8.88381 | 18909 ft | 332 kts | 331° |
| 2026-05-07 18:06 | 52.38352 | 8.86640 | 18490 ft | 328 kts | 331° |
| 2026-05-07 18:06 | 52.40363 | 8.84918 | 18076 ft | 324 kts | 331° |
| 2026-05-07 18:06 | 52.42350 | 8.83217 | 17674 ft | 320 kts | 331° |
| 2026-05-07 18:06 | 52.44313 | 8.81531 | 17278 ft | 316 kts | 331° |
| 2026-05-07 18:07 | 52.46229 | 8.79883 | 16890 ft | 313 kts | 331° |
| 2026-05-07 18:07 | 52.48152 | 8.78226 | 16499 ft | 310 kts | 331° |
| 2026-05-07 18:07 | 52.50064 | 8.76582 | 16118 ft | 308 kts | 332° |
| 2026-05-07 18:07 | 52.51958 | 8.74951 | 15728 ft | 306 kts | 332° |
| 2026-05-07 18:08 | 52.53835 | 8.73332 | 15346 ft | 304 kts | 331° |
| 2026-05-07 18:08 | 52.55676 | 8.71742 | 14968 ft | 302 kts | 332° |
| 2026-05-07 18:08 | 52.57531 | 8.70140 | 14591 ft | 301 kts | 332° |
| 2026-05-07 18:08 | 52.59381 | 8.68538 | 14211 ft | 299 kts | 332° |
| 2026-05-07 18:09 | 52.61214 | 8.66944 | 13835 ft | 297 kts | 332° |
| 2026-05-07 18:09 | 52.63037 | 8.65361 | 13456 ft | 295 kts | 332° |
| 2026-05-07 18:09 | 52.64852 | 8.63787 | 13088 ft | 293 kts | 332° |
| 2026-05-07 18:09 | 52.66653 | 8.62221 | 12725 ft | 293 kts | 332° |
| 2026-05-07 18:10 | 52.68451 | 8.60657 | 12361 ft | 291 kts | 332° |
| 2026-05-07 18:10 | 52.70239 | 8.59103 | 11990 ft | 289 kts | 332° |
| 2026-05-07 18:10 | 52.72016 | 8.57559 | 11632 ft | 288 kts | 332° |
| 2026-05-07 18:10 | 52.73783 | 8.56022 | 11273 ft | 286 kts | 332° |
| 2026-05-07 18:11 | 52.75542 | 8.54490 | 10909 ft | 285 kts | 332° |
| 2026-05-07 18:11 | 52.76725 | 8.53456 | 10663 ft | 284 kts | 332° |
| 2026-05-07 18:11 | 52.79062 | 8.51389 | 10016 ft | 287 kts | 332° |
| 2026-05-07 18:11 | 52.80815 | 8.49813 | 9619 ft | 285 kts | 332° |
| 2026-05-07 18:12 | 52.82553 | 8.48234 | 9228 ft | 284 kts | 332° |
| 2026-05-07 18:12 | 52.84281 | 8.46649 | 8834 ft | 282 kts | 332° |
| 2026-05-07 18:12 | 52.85989 | 8.45067 | 8449 ft | 280 kts | 332° |
| 2026-05-07 18:12 | 52.87687 | 8.43488 | 8065 ft | 279 kts | 332° |
| 2026-05-07 18:13 | 52.89350 | 8.41932 | 7675 ft | 277 kts | 332° |
| 2026-05-07 18:13 | 52.91024 | 8.40360 | 7291 ft | 276 kts | 332° |
| 2026-05-07 18:13 | 52.92686 | 8.38788 | 6895 ft | 274 kts | 332° |
| 2026-05-07 18:13 | 52.94337 | 8.37212 | 6493 ft | 273 kts | 332° |
| 2026-05-07 18:14 | 52.95978 | 8.35633 | 6094 ft | 272 kts | 332° |
| 2026-05-07 18:14 | 52.97614 | 8.34052 | 5715 ft | 271 kts | 332° |
| 2026-05-07 18:14 | 52.99238 | 8.32478 | 5345 ft | 269 kts | 332° |
| 2026-05-07 18:14 | 53.00860 | 8.30970 | 4939 ft | 266 kts | 340° |
| 2026-05-07 18:15 | 53.02637 | 8.30493 | 4535 ft | 258 kts | 11° |
| 2026-05-07 18:15 | 53.04190 | 8.31722 | 4284 ft | 244 kts | 48° |
| 2026-05-07 18:15 | 53.04878 | 8.34135 | 4160 ft | 229 kts | 87° |
| 2026-05-07 18:15 | 53.04498 | 8.36597 | 4032 ft | 218 kts | 117° |
| 2026-05-07 18:16 | 53.03901 | 8.38844 | 3840 ft | 207 kts | 101° |
| 2026-05-07 18:16 | 53.03793 | 8.41157 | 3662 ft | 196 kts | 90° |
| 2026-05-07 18:16 | 53.03827 | 8.43385 | 3363 ft | 193 kts | 88° |
| 2026-05-07 18:16 | 53.03881 | 8.45606 | 3065 ft | 192 kts | 88° |
| 2026-05-07 18:17 | 53.03938 | 8.47845 | 2999 ft | 193 kts | 88° |
| 2026-05-07 18:17 | 53.03994 | 8.50076 | 3007 ft | 193 kts | 88° |
| 2026-05-07 18:17 | 53.04048 | 8.52207 | 2933 ft | 177 kts | 88° |
| 2026-05-07 18:17 | 53.04097 | 8.54160 | 2750 ft | 164 kts | 88° |
| 2026-05-07 18:18 | 53.04142 | 8.55939 | 2531 ft | 147 kts | 88° |
| 2026-05-07 18:18 | 53.04185 | 8.57594 | 2225 ft | 140 kts | 89° |
| 2026-05-07 18:18 | 53.04240 | 8.59208 | 2120 ft | 139 kts | 88° |
| 2026-05-07 18:18 | 53.04277 | 8.60802 | 1958 ft | 138 kts | 90° |
| 2026-05-07 18:19 | 53.04309 | 8.62402 | 1798 ft | 139 kts | 89° |
| 2026-05-07 18:19 | 53.04343 | 8.64023 | 1629 ft | 141 kts | 90° |
| 2026-05-07 18:19 | 53.04375 | 8.65662 | 1444 ft | 142 kts | 90° |
| 2026-05-07 18:19 | 53.04416 | 8.67286 | 1252 ft | 143 kts | 90° |
| 2026-05-07 18:20 | 53.04451 | 8.68940 | 1042 ft | 144 kts | 90° |
| 2026-05-07 18:20 | 53.04490 | 8.70597 | 853 ft | 143 kts | 90° |
| 2026-05-07 18:20 | 53.04542 | 8.72239 | 670 ft | 141 kts | 89° |
| 2026-05-07 18:20 | 53.04578 | 8.73862 | 473 ft | 139 kts | 90° |
| 2026-05-07 18:21 | 53.04615 | 8.75454 | 297 ft | 137 kts | 90° |
| 2026-05-07 18:21 | 53.04645 | 8.77054 | 120 ft | 141 kts | 89° |
| 2026-05-07 18:21 | 53.04684 | 8.78648 | 23 ft | 121 kts | 88° |
| 2026-05-07 18:21 | 53.04704 | 8.79541 | 22 ft | 37 kts | 88° |
| 2026-05-07 18:22 | 53.04720 | 8.79908 | 23 ft | 21 kts | 68° |
| 2026-05-07 18:22 | 53.04786 | 8.79982 | 24 ft | 17 kts | 359° |
| 2026-05-07 18:22 | 53.04875 | 8.79808 | 23 ft | 17 kts | 268° |
| 2026-05-07 18:22 | 53.04872 | 8.79601 | 23 ft | 19 kts | 268° |
| 2026-05-07 18:23 | 53.04867 | 8.79372 | 23 ft | 21 kts | 268° |
| 2026-05-07 18:23 | 53.04861 | 8.79128 | 22 ft | 23 kts | 268° |
| 2026-05-07 18:23 | 53.04855 | 8.78862 | 20 ft | 19 kts | 268° |
| 2026-05-07 18:23 | 53.04881 | 8.78673 | 22 ft | 17 kts | 329° |
| 2026-05-07 18:24 | 53.04977 | 8.78644 | 24 ft | 14 kts | 340° |
| 2026-05-07 18:24 | 53.05048 | 8.78573 | 22 ft | 6 kts | 358° |
| 2026-05-07 18:24 | 53.05071 | 8.78600 | 22 ft | 4 kts | 41° |
| 2026-05-07 18:24 | 53.05088 | 8.78629 | 22 ft | 2 kts | 46° |
| 2026-05-07 18:25 | 53.05094 | 8.78639 | 23 ft | 0 kts | 46° |